createdAt,value
2019-01-10T00:00:50.247Z,981.834
2019-01-10T00:02:50.298Z,981.871
2019-01-10T00:04:49.646Z,981.894
2019-01-10T00:06:49.955Z,981.904
2019-01-10T00:08:49.964Z,981.931
2019-01-10T00:10:49.975Z,981.931
2019-01-10T00:12:49.975Z,981.931
2019-01-10T00:14:49.956Z,981.963
2019-01-10T00:16:50.269Z,981.980
2019-01-10T00:18:50.265Z,982.022
2019-01-10T00:20:50.267Z,982.020
2019-01-10T00:22:50.252Z,982.023
2019-01-10T00:24:50.283Z,982.036
2019-01-10T00:26:50.560Z,982.107
2019-01-10T00:28:50.594Z,982.156
2019-01-10T00:30:49.678Z,982.201
2019-01-10T00:32:49.621Z,982.233
2019-01-10T00:34:50.019Z,982.233
2019-01-10T00:36:50.161Z,982.239
2019-01-10T00:38:50.260Z,982.231
2019-01-10T00:40:50.235Z,982.250
2019-01-10T00:42:50.331Z,982.241
2019-01-10T00:44:50.303Z,982.268
2019-01-10T00:46:50.525Z,982.278
2019-01-10T00:48:50.561Z,982.289
2019-01-10T00:50:50.564Z,982.344
2019-01-10T00:52:49.716Z,982.348
2019-01-10T00:54:49.723Z,982.365
2019-01-10T00:56:49.978Z,982.365
2019-01-10T00:58:49.979Z,982.434
2019-01-10T01:00:49.939Z,982.447
2019-01-10T01:02:49.921Z,982.457
2019-01-10T01:04:50.184Z,982.461
2019-01-10T01:06:50.347Z,982.482
2019-01-10T01:08:50.361Z,982.507
2019-01-10T01:10:50.416Z,982.553
2019-01-10T01:12:59.118Z,982.575
2019-01-10T01:14:50.130Z,982.562
2019-01-10T01:16:50.324Z,982.577
2019-01-10T01:18:50.378Z,982.629
2019-01-10T01:20:50.407Z,982.652
2019-01-10T01:22:50.412Z,982.652
2019-01-10T01:24:50.486Z,982.701
2019-01-10T01:26:49.622Z,982.714
2019-01-10T01:28:49.652Z,982.762
2019-01-10T01:30:49.706Z,982.762
2019-01-10T01:32:49.898Z,982.839
2019-01-10T01:34:50.128Z,982.849
2019-01-10T01:36:50.347Z,982.864
2019-01-10T01:38:50.297Z,982.915
2019-01-10T01:40:50.241Z,982.915
2019-01-10T01:42:50.203Z,982.937
2019-01-10T01:44:50.171Z,982.947
2019-01-10T01:46:50.383Z,982.957
2019-01-10T01:48:50.390Z,982.965
2019-01-10T01:50:50.429Z,982.981
2019-01-10T01:52:50.429Z,982.990
2019-01-10T01:54:50.482Z,982.990
2019-01-10T01:56:49.752Z,982.969
2019-01-10T01:58:49.781Z,982.991
2019-01-10T02:00:49.783Z,983.013
2019-01-10T02:02:49.762Z,983.020
2019-01-10T02:04:50.191Z,983.029
2019-01-10T02:06:50.383Z,983.051
2019-01-10T02:08:50.346Z,983.072
2019-01-10T02:10:50.355Z,983.093
2019-01-10T02:12:50.347Z,983.093
2019-01-10T02:14:49.702Z,983.150
2019-01-10T02:16:50.042Z,983.163
2019-01-10T02:18:50.123Z,983.175
2019-01-10T02:20:50.202Z,983.238
2019-01-10T02:22:50.274Z,983.254
2019-01-10T02:24:50.351Z,983.254
2019-01-10T02:26:49.734Z,983.280
2019-01-10T02:28:49.811Z,983.295
2019-01-10T02:30:49.844Z,983.318
2019-01-10T02:32:49.964Z,983.313
2019-01-10T02:34:50.313Z,983.322
2019-01-10T02:36:50.377Z,983.362
2019-01-10T02:38:50.432Z,983.344
2019-01-10T02:40:50.445Z,983.352
2019-01-10T02:42:50.507Z,983.378
2019-01-10T02:44:49.688Z,983.388
2019-01-10T02:46:49.807Z,983.388
2019-01-10T02:48:49.887Z,983.380
2019-01-10T02:50:49.981Z,983.352
2019-01-10T02:52:49.901Z,983.357
2019-01-10T02:54:49.927Z,983.384
2019-01-10T02:56:50.053Z,983.406
2019-01-10T02:58:50.084Z,983.449
2019-01-10T03:00:50.075Z,983.498
2019-01-10T03:02:50.126Z,983.494
2019-01-10T03:04:50.424Z,983.484
2019-01-10T03:06:49.661Z,983.489
2019-01-10T03:08:50.223Z,983.497
2019-01-10T03:10:50.308Z,983.506
2019-01-10T03:12:50.227Z,983.510
2019-01-10T03:14:50.299Z,983.529
2019-01-10T03:16:50.480Z,983.518
2019-01-10T03:18:50.510Z,983.516
2019-01-10T03:20:52.932Z,983.522
2019-01-10T03:22:50.176Z,983.527
2019-01-10T03:24:50.246Z,983.516
2019-01-10T03:26:50.474Z,983.509
2019-01-10T03:28:50.560Z,983.508
2019-01-10T03:30:49.732Z,983.519
2019-01-10T03:32:49.896Z,983.538
2019-01-10T03:34:50.315Z,983.552
2019-01-10T03:36:50.489Z,983.578
2019-01-10T03:38:49.734Z,983.576
2019-01-10T03:40:49.870Z,983.580
2019-01-10T03:42:50.000Z,983.588
2019-01-10T03:44:50.047Z,983.588
2019-01-10T03:46:50.311Z,983.594
2019-01-10T03:48:50.324Z,983.593
2019-01-10T03:50:50.313Z,983.615
2019-01-10T03:52:50.483Z,983.606
2019-01-10T03:54:50.477Z,983.609
2019-01-10T03:56:49.729Z,983.607
2019-01-10T03:58:50.549Z,983.599
2019-01-10T04:00:50.401Z,983.579
2019-01-10T04:02:50.262Z,983.566
2019-01-10T04:04:50.413Z,983.568
2019-01-10T04:06:50.517Z,983.580
2019-01-10T04:08:50.372Z,983.590
2019-01-10T04:10:50.183Z,983.603
2019-01-10T04:12:50.072Z,983.622
2019-01-10T04:14:49.912Z,983.660
2019-01-10T04:16:50.083Z,983.673
2019-01-10T04:18:49.959Z,983.694
2019-01-10T04:20:49.767Z,983.716
2019-01-10T04:22:49.614Z,983.747
2019-01-10T04:24:50.416Z,983.786
2019-01-10T04:26:50.407Z,983.786
2019-01-10T04:28:50.248Z,983.839
2019-01-10T04:30:50.080Z,983.856
2019-01-10T04:32:49.910Z,983.864
2019-01-10T04:34:50.093Z,983.890
2019-01-10T04:36:50.134Z,983.896
2019-01-10T04:38:49.961Z,983.946
2019-01-10T04:40:49.893Z,983.957
2019-01-10T04:42:49.726Z,983.973
2019-01-10T04:44:50.687Z,983.989
2019-01-10T04:46:49.634Z,983.991
2019-01-10T04:48:50.464Z,983.992
2019-01-10T04:50:50.329Z,983.990
2019-01-10T04:52:50.186Z,984.012
2019-01-10T04:54:50.004Z,984.035
2019-01-10T04:56:49.947Z,984.060
2019-01-10T04:58:49.813Z,984.101
2019-01-10T05:00:49.630Z,984.123
2019-01-10T05:02:50.557Z,984.120
2019-01-10T05:04:49.784Z,984.122
2019-01-10T05:06:50.023Z,984.143
2019-01-10T05:08:49.914Z,984.176
2019-01-10T05:10:49.966Z,984.198
2019-01-10T05:12:49.828Z,984.213
2019-01-10T05:14:49.766Z,984.239
2019-01-10T05:16:49.819Z,984.269
2019-01-10T05:18:49.694Z,984.278
2019-01-10T05:20:50.468Z,984.278
2019-01-10T05:22:50.301Z,984.313
2019-01-10T05:24:50.151Z,984.318
2019-01-10T05:26:49.758Z,984.351
2019-01-10T05:28:50.594Z,984.377
2019-01-10T05:30:50.462Z,984.389
2019-01-10T05:32:50.310Z,984.399
2019-01-10T05:34:50.464Z,984.435
2019-01-10T05:36:50.559Z,984.475
2019-01-10T05:38:50.364Z,984.492
2019-01-10T05:40:50.202Z,984.513
2019-01-10T05:42:50.141Z,984.548
2019-01-10T05:44:49.986Z,984.570
2019-01-10T05:46:50.097Z,984.591
2019-01-10T05:48:49.951Z,984.585
2019-01-10T05:50:49.791Z,984.578
2019-01-10T05:52:49.763Z,984.591
2019-01-10T05:54:49.664Z,984.599
2019-01-10T05:56:49.700Z,984.606
2019-01-10T05:58:50.610Z,984.631
2019-01-10T06:00:50.442Z,984.647
2019-01-10T06:02:50.307Z,984.650
2019-01-10T06:04:50.340Z,984.664
2019-01-10T06:06:50.383Z,984.676
2019-01-10T06:08:50.176Z,984.679
2019-01-10T06:10:49.961Z,984.688
2019-01-10T06:12:49.801Z,984.708
2019-01-10T06:14:49.721Z,984.723
2019-01-10T06:16:49.862Z,984.735
2019-01-10T06:18:49.797Z,984.737
2019-01-10T06:20:49.792Z,984.753
2019-01-10T06:22:49.804Z,984.788
2019-01-10T06:24:49.848Z,984.810
2019-01-10T06:26:50.088Z,984.853
2019-01-10T06:28:50.253Z,984.865
2019-01-10T06:30:50.245Z,984.889
2019-01-10T06:32:50.297Z,984.907
2019-01-10T06:34:50.518Z,984.918
2019-01-10T06:36:50.407Z,984.936
2019-01-10T06:38:50.446Z,984.936
2019-01-10T06:40:50.469Z,984.998
2019-01-10T06:42:49.690Z,985.011
2019-01-10T06:44:49.751Z,985.027
2019-01-10T06:46:49.949Z,985.073
2019-01-10T06:48:49.952Z,985.107
2019-01-10T06:50:49.955Z,985.135
2019-01-10T06:52:49.999Z,985.165
2019-01-10T06:54:57.032Z,985.195
2019-01-10T06:56:50.286Z,985.210
2019-01-10T06:58:50.325Z,985.254
2019-01-10T07:00:50.284Z,985.280
2019-01-10T07:02:50.460Z,985.333
2019-01-10T07:04:49.887Z,985.360
2019-01-10T07:06:50.108Z,985.360
2019-01-10T07:08:50.135Z,985.414
2019-01-10T07:10:50.143Z,985.461
2019-01-10T07:12:50.108Z,985.500
2019-01-10T07:14:54.062Z,985.512
2019-01-10T07:16:54.105Z,985.585
2019-01-10T07:18:50.168Z,985.608
2019-01-10T07:20:52.459Z,985.623
2019-01-10T07:22:50.471Z,985.664
2019-01-10T07:24:50.467Z,985.697
2019-01-10T07:26:50.547Z,985.718
2019-01-10T07:28:50.612Z,985.718
2019-01-10T07:30:49.623Z,985.735
2019-01-10T07:32:49.663Z,985.756
2019-01-10T07:34:50.239Z,985.777
2019-01-10T07:36:50.398Z,985.804
2019-01-10T07:38:50.519Z,985.818
2019-01-10T07:40:50.576Z,985.834
2019-01-10T07:42:49.597Z,985.863
2019-01-10T07:44:49.647Z,985.898
2019-01-10T07:46:49.909Z,985.895
2019-01-10T07:48:49.955Z,985.943
2019-01-10T07:50:50.008Z,985.946
2019-01-10T07:52:49.999Z,985.977
2019-01-10T07:54:50.022Z,986.015
2019-01-10T07:56:50.227Z,986.050
2019-01-10T07:58:50.219Z,986.096
2019-01-10T08:00:50.141Z,986.096
2019-01-10T08:02:50.248Z,986.172
2019-01-10T08:04:49.741Z,986.221
2019-01-10T08:06:49.932Z,986.244
2019-01-10T08:08:49.994Z,986.268
2019-01-10T08:10:50.035Z,986.283
2019-01-10T08:12:50.041Z,986.301
2019-01-10T08:14:50.118Z,986.315
2019-01-10T08:16:50.343Z,986.340
2019-01-10T08:18:51.752Z,986.370
2019-01-10T08:20:49.859Z,986.388
2019-01-10T08:22:49.926Z,986.394
2019-01-10T08:24:49.962Z,986.422
2019-01-10T08:26:50.070Z,986.446
2019-01-10T08:28:49.991Z,986.462
2019-01-10T08:30:49.951Z,986.499
2019-01-10T08:32:50.002Z,986.539
2019-01-10T08:34:51.542Z,986.556
2019-01-10T08:36:49.902Z,986.589
2019-01-10T08:38:49.907Z,986.622
2019-01-10T08:40:49.844Z,986.659
2019-01-10T08:42:49.828Z,986.675
2019-01-10T08:44:49.831Z,986.677
2019-01-10T08:46:50.051Z,986.707
2019-01-10T08:48:49.988Z,986.722
2019-01-10T08:50:49.994Z,986.722
2019-01-10T08:52:50.039Z,986.749
2019-01-10T08:54:52.050Z,986.810
2019-01-10T08:56:50.256Z,986.827
2019-01-10T08:58:50.238Z,986.834
2019-01-10T09:00:50.413Z,986.842
2019-01-10T09:02:50.577Z,986.876
2019-01-10T09:04:50.210Z,986.893
2019-01-10T09:06:50.423Z,986.907
2019-01-10T09:08:49.833Z,986.916
2019-01-10T09:10:50.237Z,986.952
2019-01-10T09:12:50.185Z,986.989
2019-01-10T09:14:50.185Z,986.981
2019-01-10T09:16:49.727Z,986.973
2019-01-10T09:18:49.779Z,987.014
2019-01-10T09:20:49.747Z,987.017
2019-01-10T09:22:49.795Z,987.035
2019-01-10T09:24:49.633Z,987.040
2019-01-10T09:26:50.088Z,987.055
2019-01-10T09:28:50.064Z,987.058
2019-01-10T09:30:50.046Z,987.064
2019-01-10T09:32:50.082Z,987.070
2019-01-10T09:34:50.347Z,987.103
2019-01-10T09:36:49.626Z,987.088
2019-01-10T09:38:49.664Z,987.091
2019-01-10T09:40:49.599Z,987.131
2019-01-10T09:42:49.631Z,987.164
2019-01-10T09:44:49.725Z,987.182
2019-01-10T09:46:49.891Z,987.228
2019-01-10T09:48:49.857Z,987.247
2019-01-10T09:50:49.820Z,987.247
2019-01-10T09:52:49.888Z,987.299
2019-01-10T09:54:49.843Z,987.339
2019-01-10T09:56:50.028Z,987.359
2019-01-10T09:58:50.056Z,987.369
2019-01-10T10:00:50.023Z,987.372
2019-01-10T10:02:50.119Z,987.373
2019-01-10T10:04:50.408Z,987.402
2019-01-10T10:06:49.623Z,987.403
2019-01-10T10:08:49.702Z,987.418
2019-01-10T10:10:49.693Z,987.425
2019-01-10T10:12:49.783Z,987.436
2019-01-10T10:14:49.827Z,987.416
2019-01-10T10:16:50.002Z,987.433
2019-01-10T10:18:49.971Z,987.431
2019-01-10T10:20:49.889Z,987.423
2019-01-10T10:22:49.972Z,987.421
2019-01-10T10:24:49.950Z,987.439
2019-01-10T10:26:50.235Z,987.468
2019-01-10T10:28:50.164Z,987.491
2019-01-10T10:30:50.177Z,987.511
2019-01-10T10:32:50.125Z,987.531
2019-01-10T10:34:50.389Z,987.536
2019-01-10T10:36:49.635Z,987.566
2019-01-10T10:38:49.629Z,987.601
2019-01-10T10:40:49.629Z,987.620
2019-01-10T10:42:50.586Z,987.624
2019-01-10T10:44:50.591Z,987.645
2019-01-10T10:46:49.761Z,987.650
2019-01-10T10:48:49.868Z,987.650
2019-01-10T10:50:49.919Z,987.667
2019-01-10T10:52:49.954Z,987.685
2019-01-10T10:54:49.939Z,987.684
2019-01-10T10:56:50.129Z,987.701
2019-01-10T10:58:50.176Z,987.721
2019-01-10T11:00:50.079Z,987.721
2019-01-10T11:02:50.197Z,987.705
2019-01-10T11:04:50.537Z,987.718
2019-01-10T11:06:49.709Z,987.713
2019-01-10T11:08:49.700Z,987.705
2019-01-10T11:10:49.767Z,987.700
2019-01-10T11:12:49.879Z,987.681
2019-01-10T11:14:49.850Z,987.666
2019-01-10T11:16:50.108Z,987.661
2019-01-10T11:18:50.121Z,987.642
2019-01-10T11:20:50.092Z,987.626
2019-01-10T11:22:50.083Z,987.637
2019-01-10T11:24:50.076Z,987.656
2019-01-10T11:26:50.276Z,987.645
2019-01-10T11:28:50.218Z,987.652
2019-01-10T11:30:50.200Z,987.651
2019-01-10T11:32:50.406Z,987.652
2019-01-10T11:34:49.704Z,987.652
2019-01-10T11:36:50.054Z,987.662
2019-01-10T11:38:50.054Z,987.653
2019-01-10T11:40:50.180Z,987.640
2019-01-10T11:42:50.173Z,987.637
2019-01-10T11:44:50.154Z,987.634
2019-01-10T11:46:50.310Z,987.668
2019-01-10T11:48:50.320Z,987.665
2019-01-10T11:50:50.278Z,987.700
2019-01-10T11:52:50.251Z,987.709
2019-01-10T11:54:50.260Z,987.715
2019-01-10T11:56:50.412Z,987.720
2019-01-10T11:58:50.378Z,987.715
2019-01-10T12:00:50.457Z,987.691
2019-01-10T12:02:50.375Z,987.701
2019-01-10T12:04:49.714Z,987.712
2019-01-10T12:06:49.857Z,987.731
2019-01-10T12:08:49.955Z,987.722
2019-01-10T12:10:49.955Z,987.714
2019-01-10T12:12:50.043Z,987.706
2019-01-10T12:14:50.160Z,987.673
2019-01-10T12:16:50.326Z,987.669
2019-01-10T12:18:59.750Z,987.648
2019-01-10T12:20:49.817Z,987.642
2019-01-10T12:22:49.780Z,987.633
2019-01-10T12:24:49.870Z,987.649
2019-01-10T12:26:50.088Z,987.637
2019-01-10T12:28:50.035Z,987.617
2019-01-10T12:30:50.014Z,987.603
2019-01-10T12:32:50.080Z,987.600
2019-01-10T12:34:50.540Z,987.594
2019-01-10T12:36:49.751Z,987.582
2019-01-10T12:38:49.804Z,987.567
2019-01-10T12:40:49.822Z,987.570
2019-01-10T12:42:49.817Z,987.557
2019-01-10T12:44:49.795Z,987.547
2019-01-10T12:46:50.025Z,987.550
2019-01-10T12:48:50.181Z,987.528
2019-01-10T12:50:50.289Z,987.510
2019-01-10T12:52:50.292Z,987.514
2019-01-10T12:54:50.213Z,987.514
2019-01-10T12:56:50.408Z,987.514
2019-01-10T13:02:50.350Z,987.569
2019-01-10T13:04:49.627Z,987.589
2019-01-10T13:06:49.901Z,987.608
2019-01-10T13:08:49.851Z,987.606
2019-01-10T13:10:49.812Z,987.596
2019-01-10T13:12:49.790Z,987.612
2019-01-10T13:14:49.854Z,987.632
2019-01-10T13:16:50.158Z,987.639
2019-01-10T13:18:50.077Z,987.634
2019-01-10T13:20:50.021Z,987.635
2019-01-10T13:22:50.090Z,987.631
2019-01-10T13:24:50.121Z,987.644
2019-01-10T13:26:50.307Z,987.672
2019-01-10T13:28:50.331Z,987.710
2019-01-10T13:30:50.294Z,987.747
2019-01-10T13:32:50.375Z,987.755
2019-01-10T13:34:49.831Z,987.758
2019-01-10T13:36:50.031Z,987.768
2019-01-10T13:38:50.040Z,987.786
2019-01-10T13:40:50.014Z,987.848
2019-01-10T13:42:50.105Z,987.855
2019-01-10T13:44:50.159Z,987.888
2019-01-10T13:46:56.158Z,987.919
2019-01-10T13:48:51.844Z,987.962
2019-01-10T13:50:49.778Z,987.988
2019-01-10T13:52:49.787Z,988.007
2019-01-10T13:54:49.762Z,988.045
2019-01-10T13:56:49.914Z,988.043
2019-01-10T13:58:49.852Z,988.056
2019-01-10T14:00:49.868Z,988.076
2019-01-10T14:02:49.836Z,988.099
2019-01-10T14:04:50.202Z,988.138
2019-01-10T14:06:50.445Z,988.160
2019-01-10T14:08:50.386Z,988.210
2019-01-10T14:10:50.390Z,988.223
2019-01-10T14:12:50.303Z,988.241
2019-01-10T14:14:50.255Z,988.246
2019-01-10T14:16:50.412Z,988.257
2019-01-10T14:18:50.327Z,988.288
2019-01-10T14:20:50.394Z,988.321
2019-01-10T14:22:50.524Z,988.314
2019-01-10T14:24:50.417Z,988.326
2019-01-10T14:26:49.662Z,988.322
2019-01-10T14:28:49.628Z,988.318
2019-01-10T14:30:49.736Z,988.354
2019-01-10T14:32:49.720Z,988.354
2019-01-10T14:34:50.158Z,988.413
2019-01-10T14:36:50.296Z,988.413
2019-01-10T14:38:50.289Z,988.419
2019-01-10T14:40:50.307Z,988.467
2019-01-10T14:42:50.301Z,988.503
2019-01-10T14:44:50.310Z,988.517
2019-01-10T14:46:50.478Z,988.518
2019-01-10T14:48:50.479Z,988.537
2019-01-10T14:50:50.568Z,988.540
2019-01-10T14:52:50.540Z,988.540
2019-01-10T14:54:50.516Z,988.597
2019-01-10T14:56:49.666Z,988.621
2019-01-10T14:58:49.745Z,988.657
2019-01-10T15:00:49.635Z,988.677
2019-01-10T15:02:50.434Z,988.709
2019-01-10T15:04:49.620Z,988.736
2019-01-10T15:06:49.668Z,988.749
2019-01-10T15:08:50.477Z,988.756
2019-01-10T15:10:50.280Z,988.779
2019-01-10T15:12:50.094Z,988.791
2019-01-10T15:14:49.887Z,988.820
2019-01-10T15:16:49.949Z,988.848
2019-01-10T15:18:49.800Z,988.868
2019-01-10T15:20:49.678Z,988.898
2019-01-10T15:22:50.569Z,988.934
2019-01-10T15:24:50.419Z,988.960
2019-01-10T15:26:50.495Z,988.974
2019-01-10T15:28:50.312Z,988.967
2019-01-10T15:30:50.116Z,988.958
2019-01-10T15:32:50.025Z,989.009
2019-01-10T15:34:50.132Z,989.033
2019-01-10T15:36:50.208Z,989.066
2019-01-10T15:38:50.009Z,989.098
2019-01-10T15:40:49.856Z,989.112
2019-01-10T15:42:49.651Z,989.119
2019-01-10T15:44:50.492Z,989.138
2019-01-10T15:46:50.531Z,989.150
2019-01-10T15:48:50.325Z,989.172
2019-01-10T15:50:50.154Z,989.173
2019-01-10T15:52:49.989Z,989.231
2019-01-10T15:54:49.819Z,989.250
2019-01-10T15:56:49.853Z,989.257
2019-01-10T15:58:49.639Z,989.288
2019-01-10T16:00:49.692Z,989.307
2019-01-10T16:02:50.483Z,989.338
2019-01-10T16:04:49.702Z,989.347
2019-01-10T16:06:49.712Z,989.340
2019-01-10T16:08:50.595Z,989.350
2019-01-10T16:10:50.453Z,989.373
2019-01-10T16:12:50.295Z,989.354
2019-01-10T16:14:50.077Z,989.362
2019-01-10T16:16:50.172Z,989.377
2019-01-10T16:18:49.943Z,989.412
2019-01-10T16:20:49.725Z,989.414
2019-01-10T16:22:50.618Z,989.412
2019-01-10T16:24:50.326Z,989.430
2019-01-10T16:26:50.382Z,989.463
2019-01-10T16:28:50.202Z,989.497
2019-01-10T16:30:49.975Z,989.489
2019-01-10T16:32:49.908Z,989.484
2019-01-10T16:34:50.076Z,989.486
2019-01-10T16:36:50.434Z,989.505
2019-01-10T16:38:50.341Z,989.528
2019-01-10T16:40:50.169Z,989.540
2019-01-10T16:42:49.996Z,989.552
2019-01-10T16:44:49.794Z,989.562
2019-01-10T16:46:49.798Z,989.575
2019-01-10T16:48:49.704Z,989.614
2019-01-10T16:50:50.485Z,989.619
2019-01-10T16:52:50.330Z,989.643
2019-01-10T16:54:50.192Z,989.652
2019-01-10T16:56:50.153Z,989.652
2019-01-10T16:58:50.051Z,989.674
2019-01-10T17:00:49.917Z,989.694
2019-01-10T17:02:49.750Z,989.723
2019-01-10T17:04:50.025Z,989.723
2019-01-10T17:06:50.145Z,989.736
2019-01-10T17:08:50.084Z,989.744
2019-01-10T17:10:49.884Z,989.735
2019-01-10T17:12:49.751Z,989.741
2019-01-10T17:14:49.613Z,989.750
2019-01-10T17:16:50.490Z,989.767
2019-01-10T17:18:50.342Z,989.758
2019-01-10T17:20:50.251Z,989.766
2019-01-10T17:22:50.062Z,989.771
2019-01-10T17:24:49.878Z,989.787
2019-01-10T17:26:49.939Z,989.825
2019-01-10T17:28:49.759Z,989.835
2019-01-10T17:30:49.745Z,989.834
2019-01-10T17:32:50.580Z,989.834
2019-01-10T17:34:49.734Z,989.873
2019-01-10T17:36:49.784Z,989.880
2019-01-10T17:38:49.627Z,989.904
2019-01-10T17:40:50.510Z,989.916
2019-01-10T17:42:50.320Z,989.918
2019-01-10T17:44:50.200Z,989.929
2019-01-10T17:46:50.244Z,989.973
2019-01-10T17:48:50.085Z,990.001
2019-01-10T17:50:49.903Z,990.047
2019-01-10T17:52:49.698Z,990.061
2019-01-10T17:54:50.575Z,990.065
2019-01-10T17:56:50.582Z,990.065
2019-01-10T17:58:50.401Z,990.089
2019-01-10T18:00:50.181Z,990.103
2019-01-10T18:02:50.116Z,990.127
2019-01-10T18:04:50.332Z,990.134
2019-01-10T18:06:50.437Z,990.146
2019-01-10T18:08:50.251Z,990.162
2019-01-10T18:10:50.110Z,990.155
2019-01-10T18:12:49.975Z,990.162
2019-01-10T18:14:49.824Z,990.181
2019-01-10T18:16:49.881Z,990.189
2019-01-10T18:18:49.706Z,990.189
2019-01-10T18:20:50.609Z,990.192
2019-01-10T18:22:50.397Z,990.185
2019-01-10T18:24:50.200Z,990.170
2019-01-10T18:26:50.104Z,990.171
2019-01-10T18:28:49.914Z,990.183
2019-01-10T18:30:49.856Z,990.174
2019-01-10T18:32:49.701Z,990.184
2019-01-10T18:34:49.942Z,990.208
2019-01-10T18:36:49.923Z,990.229
2019-01-10T18:38:49.890Z,990.251
2019-01-10T18:40:49.670Z,990.299
2019-01-10T18:42:50.548Z,990.306
2019-01-10T18:44:50.455Z,990.295
2019-01-10T18:46:50.563Z,990.281
2019-01-10T18:48:50.367Z,990.259
2019-01-10T18:50:50.208Z,990.246
2019-01-10T18:52:50.057Z,990.260
2019-01-10T18:54:49.889Z,990.282
2019-01-10T18:56:49.971Z,990.293
2019-01-10T18:58:49.877Z,990.284
2019-01-10T19:00:49.743Z,990.277
2019-01-10T19:02:50.523Z,990.265
2019-01-10T19:04:49.751Z,990.244
2019-01-10T19:06:49.884Z,990.255
2019-01-10T19:08:49.735Z,990.277
2019-01-10T19:10:50.473Z,990.292
2019-01-10T19:12:50.423Z,990.312
2019-01-10T19:14:50.193Z,990.322
2019-01-10T19:16:50.213Z,990.338
2019-01-10T19:18:50.485Z,990.340
2019-01-10T19:20:50.253Z,990.376
2019-01-10T19:22:50.076Z,990.392
2019-01-10T19:24:49.885Z,990.410
2019-01-10T19:26:49.939Z,990.417
2019-01-10T19:28:49.741Z,990.431
2019-01-10T19:30:49.617Z,990.461
2019-01-10T19:32:50.443Z,990.467
2019-01-10T19:34:50.522Z,990.473
2019-01-10T19:36:50.597Z,990.481
2019-01-10T19:38:50.464Z,990.479
2019-01-10T19:40:50.214Z,990.502
2019-01-10T19:42:50.023Z,990.522
2019-01-10T19:44:49.902Z,990.521
2019-01-10T19:46:49.829Z,990.538
2019-01-10T19:48:49.721Z,990.536
2019-01-10T19:50:50.666Z,990.543
2019-01-10T19:52:49.670Z,990.545
2019-01-10T19:54:50.520Z,990.574
2019-01-10T19:56:49.680Z,990.603
2019-01-10T19:58:49.641Z,990.617
2019-01-10T20:00:50.451Z,990.612
2019-01-10T20:02:50.267Z,990.600
2019-01-10T20:04:50.324Z,990.605
2019-01-10T20:06:50.366Z,990.599
2019-01-10T20:08:50.155Z,990.583
2019-01-10T20:10:50.007Z,990.586
2019-01-10T20:12:49.879Z,990.578
2019-01-10T20:14:49.712Z,990.590
2019-01-10T20:16:49.704Z,990.597
2019-01-10T20:18:49.610Z,990.612
2019-01-10T20:20:50.406Z,990.644
2019-01-10T20:22:50.243Z,990.674
2019-01-10T20:24:50.025Z,990.682
2019-01-10T20:26:50.146Z,990.686
2019-01-10T20:28:49.979Z,990.700
2019-01-10T20:30:49.910Z,990.708
2019-01-10T20:32:49.781Z,990.718
2019-01-10T20:34:50.024Z,990.716
2019-01-10T20:36:50.008Z,990.720
2019-01-10T20:38:49.849Z,990.721
2019-01-10T20:40:49.774Z,990.720
2019-01-10T20:42:49.695Z,990.735
2019-01-10T20:44:50.467Z,990.754
2019-01-10T20:46:50.550Z,990.770
2019-01-10T20:48:50.332Z,990.788
2019-01-10T20:50:50.236Z,990.787
2019-01-10T20:52:50.121Z,990.768
2019-01-10T20:54:49.991Z,990.760
2019-01-10T20:56:49.962Z,990.760
2019-01-10T20:58:49.810Z,990.799
2019-01-10T21:00:49.678Z,990.808
2019-01-10T21:02:50.538Z,990.794
2019-01-10T21:04:49.825Z,990.783
2019-01-10T21:06:49.965Z,990.782
2019-01-10T21:08:49.762Z,990.786
2019-01-10T21:10:49.620Z,990.793
2019-01-10T21:12:50.522Z,990.814
2019-01-10T21:14:50.288Z,990.837
2019-01-10T21:16:50.376Z,990.837
2019-01-10T21:18:50.165Z,990.877
2019-01-10T21:20:50.005Z,990.880
2019-01-10T21:22:49.765Z,990.891
2019-01-10T21:24:50.560Z,990.900
2019-01-10T21:26:50.525Z,990.896
2019-01-10T21:28:50.372Z,990.890
2019-01-10T21:30:50.249Z,990.890
2019-01-10T21:32:50.164Z,990.892
2019-01-10T21:34:50.414Z,990.893
2019-01-10T21:36:50.583Z,990.887
2019-01-10T21:38:50.405Z,990.903
2019-01-10T21:40:50.252Z,990.949
2019-01-10T21:42:50.099Z,990.986
2019-01-10T21:44:50.257Z,991.009
2019-01-10T21:46:50.306Z,991.030
2019-01-10T21:48:50.072Z,991.047
2019-01-10T21:50:49.842Z,991.064
2019-01-10T21:52:49.687Z,991.074
2019-01-10T21:54:50.555Z,991.074
2019-01-10T21:56:49.691Z,991.112
2019-01-10T21:58:50.555Z,991.087
2019-01-10T22:00:50.389Z,991.081
2019-01-10T22:02:50.278Z,991.049
2019-01-10T22:04:50.339Z,991.037
2019-01-10T22:06:50.274Z,991.037
2019-01-10T22:08:50.164Z,990.999
2019-01-10T22:10:49.996Z,990.985
2019-01-10T22:12:49.802Z,990.968
2019-01-10T22:14:49.635Z,990.968
2019-01-10T22:16:49.682Z,990.933
2019-01-10T22:18:50.585Z,990.880
2019-01-10T22:20:50.419Z,990.863
2019-01-10T22:22:50.292Z,990.876
2019-01-10T22:24:50.079Z,990.877
2019-01-10T22:26:50.124Z,990.863
2019-01-10T22:28:49.951Z,990.841
2019-01-10T22:30:49.765Z,990.821
2019-01-10T22:32:49.664Z,990.806
2019-01-10T22:34:49.924Z,990.796
2019-01-10T22:36:50.042Z,990.806
2019-01-10T22:38:49.805Z,990.777
2019-01-10T22:40:49.659Z,990.770
2019-01-10T22:42:50.420Z,990.770
2019-01-10T22:44:50.265Z,990.754
2019-01-10T22:46:50.266Z,990.743
2019-01-10T22:48:50.044Z,990.752
2019-01-10T22:50:49.886Z,990.774
2019-01-10T22:52:49.716Z,990.783
2019-01-10T22:54:50.611Z,990.766
2019-01-10T22:56:49.737Z,990.756
2019-01-10T22:58:50.479Z,990.755
2019-01-10T23:00:50.405Z,990.744
2019-01-10T23:02:50.203Z,990.755
2019-01-10T23:04:50.395Z,990.745
2019-01-10T23:06:50.589Z,990.729
2019-01-10T23:08:50.422Z,990.753
2019-01-10T23:10:50.319Z,990.752
2019-01-10T23:12:50.167Z,990.751
2019-01-10T23:14:49.919Z,990.774
2019-01-10T23:16:50.054Z,990.796
2019-01-10T23:18:54.556Z,990.814
2019-01-10T23:20:50.311Z,990.831
2019-01-10T23:22:50.163Z,990.840
2019-01-10T23:24:49.956Z,990.853
2019-01-10T23:26:50.007Z,990.883
2019-01-10T23:28:49.831Z,990.901
2019-01-10T23:30:49.720Z,990.910
2019-01-10T23:32:50.550Z,990.906
2019-01-10T23:34:49.655Z,990.884
2019-01-10T23:36:49.729Z,990.884
2019-01-10T23:38:49.636Z,990.874
2019-01-10T23:40:50.455Z,990.876
2019-01-10T23:42:50.261Z,990.913
2019-01-10T23:44:50.091Z,990.924
2019-01-10T23:46:50.138Z,990.930
2019-01-10T23:48:49.951Z,990.919
2019-01-10T23:50:49.826Z,990.914
2019-01-10T23:52:49.771Z,990.936
2019-01-10T23:54:50.592Z,990.947
2019-01-10T23:56:49.766Z,990.931
2019-01-10T23:58:50.585Z,990.920
